Time;durP1;ratioP1;P1;durP2;ratioP2;P2;SDS_P1;SDS_P2;PMS_P1;PMS_P2;Temp;Humidity;BMP_temperature;BMP_pressure;BME280_temperature;BME280_humidity;BME280_pressure;Samples;Min_cycle;Max_cycle;Signal;HPM_P1;HPM_P2
2022/04/19 00:00:29;;;;;;;4.80;1.80;;;;;;;10.15;48.67;100028.00;5115961;28;20063;-77
2022/04/19 00:02:54;;;;;;;4.80;1.80;;;;;;;10.23;48.08;100025.06;5116218;28;20150;-77
2022/04/19 00:05:20;;;;;;;4.73;2.00;;;;;;;10.14;48.21;100021.78;5115887;28;20027;-77
2022/04/19 00:07:45;;;;;;;5.35;1.73;;;;;;;10.10;48.74;100020.53;5116242;28;20034;-77
2022/04/19 00:10:11;;;;;;;5.83;1.77;;;;;;;9.99;48.68;100019.34;5116033;28;20035;-77
2022/04/19 00:12:36;;;;;;;4.85;2.17;;;;;;;9.95;49.17;100015.41;5118181;28;20027;-78
2022/04/19 00:15:04;;;;;;;5.27;2.43;;;;;;;10.01;49.17;100019.97;5120925;28;20024;-77
2022/04/19 00:17:29;;;;;;;7.13;2.20;;;;;;;10.12;48.63;100013.09;5121072;28;20050;-78
2022/04/19 00:19:55;;;;;;;5.95;2.28;;;;;;;10.09;48.82;100011.63;5104250;28;20028;-78
2022/04/19 00:22:20;;;;;;;5.10;2.00;;;;;;;10.25;48.44;100009.53;5121401;28;20024;-77
2022/04/19 00:24:46;;;;;;;4.65;2.35;;;;;;;10.17;48.51;100010.59;5121374;28;20032;-77
2022/04/19 00:27:26;;;;;;;4.68;1.85;;;;;;;10.07;49.37;100016.41;5120323;28;20059;-77
2022/04/19 00:29:53;;;;;;;5.68;2.40;;;;;;;9.96;49.69;100013.53;5122151;28;20035;-77
2022/04/19 00:32:19;;;;;;;6.78;2.40;;;;;;;9.95;49.96;100018.09;5121257;28;20070;-77
2022/04/19 00:34:46;;;;;;;6.15;1.98;;;;;;;9.92;49.17;100015.81;5120398;28;20112;-77
2022/04/19 00:37:12;;;;;;;5.80;2.35;;;;;;;9.87;49.56;100012.94;5119905;28;20036;-77
2022/04/19 00:39:37;;;;;;;5.47;2.15;;;;;;;9.88;49.69;100009.19;5101385;28;20028;-77
2022/04/19 00:42:03;;;;;;;5.30;2.10;;;;;;;9.95;49.35;100010.03;5101535;28;20031;-77
2022/04/19 00:44:28;;;;;;;4.28;1.98;;;;;;;9.80;50.05;100003.22;5118972;28;20111;-77
2022/04/19 00:46:54;;;;;;;6.53;2.20;;;;;;;9.72;49.65;99994.34;5118892;28;20481;-77
2022/04/19 00:49:20;;;;;;;6.35;2.33;;;;;;;9.60;50.18;99998.72;5120398;28;20477;-77
2022/04/19 00:51:46;;;;;;;5.37;1.97;;;;;;;9.65;50.41;99984.63;5121162;28;20038;-77
2022/04/19 00:54:13;;;;;;;5.40;2.28;;;;;;;9.56;50.52;99983.19;5120382;28;20106;-77
2022/04/19 00:56:40;;;;;;;5.07;2.20;;;;;;;9.45;51.07;99984.66;5119779;28;20063;-77
2022/04/19 00:59:05;;;;;;;5.07;2.03;;;;;;;9.35;51.18;99990.44;5120970;28;20035;-77
2022/04/19 01:01:31;;;;;;;5.28;2.17;;;;;;;9.26;51.45;99983.63;5103325;28;20027;-78
2022/04/19 01:03:58;;;;;;;3.95;2.00;;;;;;;9.21;51.81;99987.97;5120404;28;20062;-77
2022/04/19 01:06:23;;;;;;;4.50;1.75;;;;;;;9.09;52.61;99990.44;5119494;28;20031;-77
2022/04/19 01:08:48;;;;;;;5.13;1.70;;;;;;;9.13;51.60;99982.81;5121091;28;20039;-77
2022/04/19 01:14:02;;;;;;;5.00;2.30;;;;;;;9.12;51.92;99983.84;5120328;28;20035;-77
2022/04/19 01:16:27;;;;;;;7.70;2.20;;;;;;;8.98;52.95;99981.13;5119854;28;20032;-77
2022/04/19 01:18:53;;;;;;;5.10;2.00;;;;;;;8.92;52.52;99979.28;5121040;28;20064;-78
2022/04/19 01:21:19;;;;;;;6.95;2.20;;;;;;;8.83;53.04;99979.66;5100267;28;20040;-77
2022/04/19 01:23:44;;;;;;;9.73;2.53;;;;;;;8.86;53.21;99977.41;5120483;28;20043;-77
2022/04/19 01:26:09;;;;;;;4.67;1.80;;;;;;;8.85;53.80;99967.69;5119239;28;20023;-77
2022/04/19 01:28:34;;;;;;;4.83;1.73;;;;;;;8.68;54.41;99964.56;5121204;28;20036;-77
2022/04/19 01:31:00;;;;;;;4.13;1.70;;;;;;;8.55;55.15;99972.59;5120744;28;20031;-77
2022/04/19 01:33:25;;;;;;;5.47;2.30;;;;;;;8.39;56.38;99964.91;5120114;28;20049;-77
2022/04/19 01:35:51;;;;;;;6.17;2.70;;;;;;;8.16;57.37;99972.41;5120591;28;20032;-77
2022/04/19 01:38:16;;;;;;;3.87;1.80;;;;;;;8.12;57.35;99971.16;5121803;28;20093;-77
2022/04/19 01:40:41;;;;;;;6.13;1.93;;;;;;;8.09;57.44;99964.31;5120005;28;20080;-77
2022/04/19 01:43:07;;;;;;;6.53;2.40;;;;;;;8.16;57.00;99969.72;5122733;28;20050;-78
2022/04/19 01:45:33;;;;;;;4.80;1.80;;;;;;;8.17;57.11;99961.47;5123837;28;20028;-77
2022/04/19 01:48:00;;;;;;;5.93;2.13;;;;;;;8.19;57.48;99962.13;5124604;28;20036;-77
2022/04/19 01:50:27;;;;;;;4.72;2.40;;;;;;;8.18;56.70;99960.47;5124003;28;20039;-78
2022/04/19 01:52:57;;;;;;;5.57;1.92;;;;;;;8.21;56.98;99964.59;5124473;28;20027;-77
2022/04/19 01:55:23;;;;;;;4.45;2.30;;;;;;;8.26;56.77;99967.47;5124125;28;20110;-77
2022/04/19 01:57:53;;;;;;;7.25;2.25;;;;;;;8.27;56.59;99958.41;5104259;28;20028;-77
2022/04/19 02:00:19;;;;;;;5.43;2.30;;;;;;;8.33;56.72;99960.31;5124252;28;20058;-77
2022/04/19 02:02:45;;;;;;;;;;;;;;;8.28;56.85;99960.06;5107180;28;20024;-77
2022/04/19 02:05:12;;;;;;;5.55;2.00;;;;;;;8.32;56.89;99956.00;5124458;28;19915;-77
2022/04/19 02:07:39;;;;;;;6.13;2.35;;;;;;;8.41;56.60;99952.09;5125348;28;20110;-78
2022/04/19 02:10:05;;;;;;;4.97;2.08;;;;;;;8.40;56.76;99958.50;5124702;28;20032;-78
2022/04/19 02:12:31;;;;;;;5.68;2.33;;;;;;;8.37;56.54;99958.91;5125038;28;20428;-78
2022/04/19 02:14:56;;;;;;;5.78;2.53;;;;;;;8.36;56.34;99959.94;5124058;28;20028;-77
2022/04/19 02:17:23;;;;;;;5.40;2.05;;;;;;;8.35;56.59;99950.22;5124341;28;20035;-77
2022/04/19 02:19:59;;;;;;;8.73;2.00;;;;;;;8.40;56.38;99944.25;5125745;28;20027;-78
2022/04/19 02:22:24;;;;;;;5.60;2.30;;;;;;;8.42;56.22;99943.00;5114605;28;20118;-78
2022/04/19 02:24:49;;;;;;;5.27;2.40;;;;;;;8.52;55.94;99956.03;5118289;28;20070;-76
2022/04/19 02:27:15;;;;;;;8.17;2.77;;;;;;;8.46;56.09;99948.78;5116617;28;20123;-76
2022/04/19 02:29:40;;;;;;;5.70;2.50;;;;;;;8.50;55.92;99953.56;5116612;28;20058;-76
2022/04/19 02:32:06;;;;;;;4.93;2.30;;;;;;;8.46;56.81;99956.84;5116133;28;20265;-76
2022/04/19 02:34:31;;;;;;;5.10;2.05;;;;;;;8.43;56.57;99952.72;5098052;28;20529;-76
2022/04/19 02:36:56;;;;;;;6.93;2.80;;;;;;;8.39;56.70;99948.78;5116522;28;20123;-76
2022/04/19 02:39:22;;;;;;;5.60;2.47;;;;;;;8.39;56.80;99956.84;5116493;28;20093;-76
2022/04/19 02:41:47;;;;;;;5.20;2.20;;;;;;;8.38;56.46;99963.25;5116165;28;20077;-76
2022/04/19 02:44:13;;;;;;;4.87;2.00;;;;;;;8.42;56.96;99958.31;5098101;28;20341;-76
2022/04/19 02:46:38;;;;;;;5.70;2.50;;;;;;;8.34;57.87;99961.97;5116354;28;20390;-76
2022/04/19 02:49:04;;;;;;;4.45;1.77;;;;;;;8.37;58.18;99961.59;5116200;28;20034;-76
2022/04/19 02:51:30;;;;;;;6.13;2.78;;;;;;;8.22;58.05;99961.72;5116059;28;20043;-76
2022/04/19 02:53:56;;;;;;;;;;;;;;;8.27;57.73;99963.78;5115606;28;20028;-76
2022/04/19 02:56:21;;;;;;;5.07;2.43;;;;;;;8.34;57.30;99953.94;5116155;28;19963;-76
2022/04/19 02:58:46;;;;;;;5.33;2.20;;;;;;;8.23;57.56;99958.00;5097684;28;20262;-76
2022/04/19 03:01:12;;;;;;;5.63;2.40;;;;;;;8.27;57.61;99969.16;5097403;28;20038;-76
2022/04/19 03:03:46;;;;;;;5.43;2.17;;;;;;;8.21;57.50;99965.44;5121936;28;20073;-78
2022/04/19 03:06:11;;;;;;;5.00;2.25;;;;;;;8.15;57.65;99962.72;5118919;28;20426;-76
2022/04/19 03:08:40;;;;;;;7.37;2.60;;;;;;;8.18;57.67;99954.25;5117910;28;20122;-77
2022/04/19 03:11:05;;;;;;;6.85;2.83;;;;;;;8.01;58.21;99961.81;5121359;28;20034;-77
2022/04/19 03:13:35;;;;;;;4.80;2.17;;;;;;;7.94;58.47;99958.28;5120342;28;20063;-77
2022/04/19 03:16:01;;;;;;;5.50;2.45;;;;;;;7.95;58.01;99951.88;5123553;28;20038;-77
2022/04/19 03:18:27;;;;;;;5.97;2.65;;;;;;;7.94;58.61;99953.75;5124275;28;20472;-77
2022/04/19 03:20:52;;;;;;;5.87;2.60;;;;;;;7.86;58.84;99953.91;5123054;28;20063;-77
2022/04/19 03:28:48;;;;;;;6.32;2.50;;;;;;;7.91;59.16;99954.13;5122257;28;20046;-77
2022/04/19 03:31:14;;;;;;;6.07;2.50;;;;;;;7.85;59.33;99960.31;5123111;28;20028;-77
2022/04/19 03:33:39;;;;;;;6.03;2.63;;;;;;;7.76;59.02;99957.97;5123674;28;20087;-77
2022/04/19 03:36:08;;;;;;;5.43;2.47;;;;;;;7.71;59.84;99963.91;5105239;28;20061;-77
2022/04/19 03:38:34;;;;;;;6.93;2.47;;;;;;;7.64;59.66;99957.72;5123875;28;20039;-77
2022/04/19 03:40:59;;;;;;;;;;;;;;;7.64;60.12;99957.72;5123726;28;20039;-77
2022/04/19 03:43:25;;;;;;;5.68;2.60;;;;;;;7.65;60.31;99960.19;5123928;28;20404;-77
2022/04/19 03:45:50;;;;;;;7.25;2.45;;;;;;;7.66;59.77;99964.53;5123323;28;20027;-77
2022/04/19 03:48:15;;;;;;;6.43;2.50;;;;;;;7.58;60.36;99959.31;5117867;28;20031;-76
2022/04/19 03:50:41;;;;;;;6.33;2.53;;;;;;;7.52;60.28;99956.63;5116560;28;20110;-77
2022/04/19 03:53:07;;;;;;;5.80;2.53;;;;;;;7.48;60.65;99961.53;5120410;28;20027;-77
2022/04/19 03:55:32;;;;;;;6.70;2.50;;;;;;;7.55;60.26;99958.88;5121708;28;20484;-77
2022/04/19 03:57:58;;;;;;;7.40;3.22;;;;;;;7.58;60.33;99966.53;5120971;28;20106;-77
2022/04/19 04:00:23;;;;;;;8.10;2.80;;;;;;;7.56;60.21;99960.53;5121038;28;20036;-77
2022/04/19 04:02:49;;;;;;;6.20;2.83;;;;;;;7.44;60.54;99959.44;5115461;28;20080;-76
2022/04/19 04:05:14;;;;;;;5.73;2.70;;;;;;;7.37;60.84;99963.91;5114620;28;20035;-76
2022/04/19 04:07:39;;;;;;;10.97;4.13;;;;;;;7.40;60.91;99964.34;5115115;28;20102;-76
2022/04/19 04:10:05;;;;;;;11.07;3.03;;;;;;;7.39;61.20;99962.69;5118335;28;20047;-77
2022/04/19 04:12:31;;;;;;;7.00;3.28;;;;;;;7.31;61.09;99958.31;5121813;28;20020;-77
2022/04/19 04:14:56;;;;;;;7.82;3.40;;;;;;;7.26;61.58;99958.06;5121625;28;20035;-77
2022/04/19 04:17:21;;;;;;;7.50;3.77;;;;;;;7.21;61.35;99968.53;5121317;28;20083;-77
2022/04/19 04:19:46;;;;;;;8.40;2.73;;;;;;;7.30;61.36;99963.88;5120932;28;20024;-77
2022/04/19 04:22:12;;;;;;;7.23;2.87;;;;;;;7.26;61.89;99963.44;5103037;28;20027;-77
2022/04/19 04:24:37;;;;;;;8.80;3.43;;;;;;;7.18;61.75;99958.19;5121300;28;20023;-77
2022/04/19 04:27:03;;;;;;;6.13;2.73;;;;;;;7.27;61.21;99951.69;5121907;28;20062;-77
2022/04/19 04:29:28;;;;;;;7.72;3.28;;;;;;;7.25;61.35;99958.25;5122771;28;20055;-77
2022/04/19 04:31:54;;;;;;;10.07;2.95;;;;;;;7.26;61.23;99960.75;5120974;28;20466;-77
2022/04/19 04:34:19;;;;;;;6.30;2.93;;;;;;;7.19;61.69;99969.75;5122028;28;20031;-77
2022/04/19 04:36:44;;;;;;;7.73;3.53;;;;;;;7.22;61.40;99974.72;5122527;28;20296;-77
2022/04/19 04:39:10;;;;;;;8.77;3.33;;;;;;;7.27;60.55;99973.13;5121508;28;20394;-77
2022/04/19 04:41:35;;;;;;;8.20;3.07;;;;;;;7.31;60.75;99969.03;5121455;28;20028;-77
2022/04/19 04:44:00;;;;;;;7.73;3.63;;;;;;;7.34;60.18;99972.34;5121436;28;20073;-77
2022/04/19 04:51:54;;;;;;;6.85;3.28;;;;;;;7.29;60.92;99973.75;5120727;28;20026;-77
2022/04/19 04:54:20;;;;;;;8.02;3.55;;;;;;;7.19;61.74;99972.44;5121126;28;20027;-77
2022/04/19 04:56:45;;;;;;;8.27;3.70;;;;;;;7.21;61.99;99973.91;5120519;28;20028;-77
2022/04/19 04:59:10;;;;;;;12.47;4.07;;;;;;;7.23;61.71;99977.22;5120695;28;20287;-77
2022/04/19 05:01:36;;;;;;;7.90;3.43;;;;;;;7.17;61.64;99980.66;5120076;28;20023;-77
2022/04/19 05:04:01;;;;;;;7.17;3.33;;;;;;;7.49;61.55;99973.91;5120905;28;20031;-77
2022/04/19 05:06:26;;;;;;;13.33;4.53;;;;;;;7.38;61.62;99984.31;5120166;28;20020;-77
2022/04/19 05:08:52;;;;;;;8.13;3.37;;;;;;;7.27;61.79;99983.84;5102165;28;20043;-77
2022/04/19 05:11:17;;;;;;;9.90;3.93;;;;;;;7.19;61.95;99975.94;5101832;28;20278;-77
2022/04/19 05:13:42;;;;;;;7.33;3.13;;;;;;;7.28;62.42;99976.63;5119023;28;20034;-77
2022/04/19 05:16:08;;;;;;;9.20;3.30;;;;;;;7.23;62.11;99976.38;5100565;28;20069;-77
2022/04/19 05:18:33;;;;;;;10.38;4.13;;;;;;;7.13;62.22;99987.44;5104282;28;20106;-78
2022/04/19 05:20:59;;;;;;;10.82;3.45;;;;;;;7.02;62.94;99979.09;5123426;28;20156;-77
2022/04/19 05:23:24;;;;;;;8.97;3.73;;;;;;;7.02;62.74;99989.78;5123182;28;20051;-77
2022/04/19 05:25:49;;;;;;;6.63;3.17;;;;;;;7.00;62.61;99981.94;5123644;28;20039;-77
2022/04/19 05:28:15;;;;;;;8.37;3.70;;;;;;;7.04;62.90;99980.56;5123246;28;20052;-77
2022/04/19 05:30:40;;;;;;;10.60;3.30;;;;;;;7.14;62.33;99989.09;5122614;28;20020;-77
2022/04/19 05:33:05;;;;;;;7.33;3.13;;;;;;;7.15;62.58;99982.72;5123234;28;20031;-77
2022/04/19 05:35:32;;;;;;;7.60;3.23;;;;;;;7.28;61.83;99977.47;5121560;28;20352;-77
2022/04/19 05:37:59;;;;;;;6.35;2.88;;;;;;;7.37;61.91;99983.50;5122228;28;20030;-77
2022/04/19 05:40:25;;;;;;;7.30;2.60;;;;;;;7.46;61.61;99976.16;5121088;28;20038;-77
2022/04/19 05:42:51;;;;;;;7.35;2.95;;;;;;;7.53;61.28;99972.47;5120633;28;20114;-78
2022/04/19 05:45:16;;;;;;;8.45;3.47;;;;;;;7.62;60.75;99982.03;5120452;28;20062;-77
2022/04/19 05:47:43;;;;;;;8.65;3.08;;;;;;;7.69;59.69;99979.41;5123592;28;20053;-78
2022/04/19 05:50:09;;;;;;;9.88;3.20;;;;;;;7.59;60.11;99974.38;5123671;28;20043;-78
2022/04/19 05:52:35;;;;;;;6.88;3.10;;;;;;;7.71;59.81;99980.00;5120048;28;20430;-78
2022/04/19 05:55:00;;;;;;;11.60;3.77;;;;;;;7.72;59.51;99975.47;5119366;28;20062;-77
2022/04/19 05:57:25;;;;;;;8.47;3.23;;;;;;;7.90;59.24;99983.84;5119259;28;20364;-77
2022/04/19 05:59:51;;;;;;;8.20;3.33;;;;;;;7.95;58.77;99971.50;5119122;28;20122;-78
2022/04/19 06:05:00;;;;;;;6.95;2.92;;;;;;;8.08;58.05;99969.88;5119142;28;20031;-77
2022/04/19 06:07:27;;;;;;;9.20;3.60;;;;;;;8.07;57.65;99981.66;5118673;28;20031;-78
2022/04/19 06:09:53;;;;;;;7.15;2.83;;;;;;;8.23;57.70;99982.16;5120102;28;20053;-78
2022/04/19 06:12:18;;;;;;;7.30;3.28;;;;;;;8.18;57.59;99981.09;5119513;28;20027;-78
2022/04/19 06:14:44;;;;;;;6.87;3.17;;;;;;;8.39;57.21;99990.91;5100717;28;20504;-78
2022/04/19 06:17:17;;;;;;;10.20;3.15;;;;;;;8.51;57.16;99981.25;5117973;28;20023;-78
2022/04/19 06:19:43;;;;;;;6.70;3.45;;;;;;;8.78;56.35;99990.22;5118503;28;20043;-78
2022/04/19 06:22:08;;;;;;;10.10;3.88;;;;;;;8.83;55.86;99985.03;5099444;28;20034;-77
2022/04/19 06:24:34;;;;;;;8.55;3.58;;;;;;;8.82;55.83;99986.06;5117832;28;20114;-78
2022/04/19 06:26:59;;;;;;;9.25;3.95;;;;;;;8.95;55.28;99995.00;5118116;28;20047;-78
2022/04/19 06:29:24;;;;;;;7.27;2.67;;;;;;;9.19;54.22;99985.47;5098527;28;20043;-78
2022/04/19 06:31:50;;;;;;;7.20;3.23;;;;;;;9.28;54.23;99995.00;5117194;28;20099;-77
2022/04/19 06:34:16;;;;;;;9.20;4.27;;;;;;;9.21;53.76;99990.66;5117448;28;20382;-78
2022/04/19 06:36:45;;;;;;;9.50;3.67;;;;;;;9.23;53.54;99991.28;5117897;28;20130;-78
2022/04/19 06:39:11;;;;;;;10.20;3.88;;;;;;;9.27;53.74;99992.53;5117508;28;20035;-77
2022/04/19 06:41:41;;;;;;;9.13;3.87;;;;;;;9.37;53.23;99983.00;5099100;28;20039;-78
2022/04/19 06:44:08;;;;;;;11.20;3.60;;;;;;;9.60;52.62;99990.63;5099567;28;20627;-77
2022/04/19 06:46:34;;;;;;;11.40;3.85;;;;;;;9.78;52.68;99984.59;5117518;28;20499;-78
2022/04/19 06:48:59;;;;;;;11.25;3.90;;;;;;;9.93;51.72;99998.63;5116627;28;20024;-78
2022/04/19 06:51:29;;;;;;;10.10;4.73;;;;;;;10.38;50.36;99996.03;5116265;28;20031;-78
2022/04/19 06:53:55;;;;;;;9.02;3.72;;;;;;;10.75;49.55;99989.81;5116677;28;20015;-78
2022/04/19 06:56:20;;;;;;;9.53;3.93;;;;;;;11.59;48.55;99993.13;5116696;28;20134;-78
2022/04/19 06:58:45;;;;;;;8.93;3.27;;;;;;;12.04;46.66;99991.03;5117600;28;20035;-78
2022/04/19 07:01:11;;;;;;;6.53;2.83;;;;;;;11.51;46.23;99988.00;5116801;28;20039;-78
2022/04/19 07:03:37;;;;;;;8.70;3.58;;;;;;;11.52;47.73;99995.06;5098790;28;20059;-77
2022/04/19 07:06:03;;;;;;;9.18;3.88;;;;;;;11.20;49.11;100005.91;5116203;28;20111;-78
2022/04/19 07:08:29;;;;;;;8.55;3.67;;;;;;;11.06;48.92;99996.28;5097875;28;20032;-77
2022/04/19 07:10:56;;;;;;;7.68;3.88;;;;;;;11.23;49.16;99997.38;5114891;28;20484;-77
2022/04/19 07:13:22;;;;;;;8.77;3.63;;;;;;;11.24;48.47;99999.03;5114240;28;20024;-77
2022/04/19 07:15:48;;;;;;;10.88;3.10;;;;;;;11.49;47.01;99999.03;5114357;28;20032;-76
2022/04/19 07:18:14;;;;;;;9.27;3.75;;;;;;;11.51;46.56;99991.53;5115599;28;20378;-78
2022/04/19 07:28:52;;;;;;;9.13;4.22;;;;;;;11.60;47.01;99997.50;5115473;28;20217;-78
2022/04/19 07:31:17;;;;;;;8.57;3.63;;;;;;;11.83;45.83;99992.28;5114750;28;20509;-77
2022/04/19 07:33:43;;;;;;;8.40;3.60;;;;;;;12.06;43.86;99995.16;5114622;28;20023;-77
2022/04/19 07:36:08;;;;;;;6.88;2.92;;;;;;;12.09;42.81;99997.41;5114612;28;20565;-77
2022/04/19 07:38:34;;;;;;;7.93;3.37;;;;;;;11.79;42.40;100005.44;5114488;28;20035;-77
2022/04/19 07:40:59;;;;;;;7.60;3.10;;;;;;;11.91;41.49;99997.41;5096106;28;20272;-77
2022/04/19 07:43:25;;;;;;;7.90;3.20;;;;;;;12.08;42.11;100003.03;5114881;28;20031;-77
2022/04/19 07:45:50;;;;;;;10.57;4.10;;;;;;;12.11;40.89;99999.91;5114241;28;20042;-77
2022/04/19 07:48:16;;;;;;;9.27;2.63;;;;;;;12.35;41.02;99990.06;5114148;28;20027;-76
2022/04/19 07:50:43;;;;;;;6.35;2.97;;;;;;;12.31;40.68;99996.97;5113907;28;20043;-77
2022/04/19 07:53:09;;;;;;;6.65;2.83;;;;;;;12.40;40.28;99999.13;5113966;28;20489;-77
2022/04/19 07:55:35;;;;;;;6.65;3.08;;;;;;;12.62;39.84;100004.88;5114064;28;20028;-77
2022/04/19 07:58:01;;;;;;;8.90;3.20;;;;;;;12.51;40.08;99995.66;5113868;28;20023;-76
2022/04/19 08:00:27;;;;;;;8.30;2.97;;;;;;;12.63;39.45;100003.00;5113627;28;20067;-77
2022/04/19 08:02:54;;;;;;;9.10;3.47;;;;;;;12.77;39.24;99999.03;5095533;28;20023;-76
2022/04/19 08:05:20;;;;;;;9.80;3.15;;;;;;;12.70;39.75;100001.03;5095902;28;20420;-76
2022/04/19 08:07:48;;;;;;;7.78;3.15;;;;;;;12.91;39.46;100003.19;5095427;28;20043;-77
2022/04/19 08:10:13;;;;;;;7.28;3.03;;;;;;;13.08;38.90;100006.06;5095779;28;20081;-77
2022/04/19 08:12:38;;;;;;;8.18;3.08;;;;;;;13.22;38.42;100006.75;5113385;28;20479;-77
2022/04/19 08:15:04;;;;;;;7.67;2.97;;;;;;;13.18;37.80;100009.09;5114308;28;20082;-76
2022/04/19 08:17:32;;;;;;;6.80;2.85;;;;;;;13.22;37.81;100009.44;5095706;28;20442;-76
2022/04/19 08:19:57;;;;;;;8.15;3.58;;;;;;;12.99;38.66;100005.59;5113976;28;20515;-77
2022/04/19 08:22:23;;;;;;;7.73;3.20;;;;;;;13.16;38.90;100003.91;5113864;28;20023;-76
2022/04/19 08:24:49;;;;;;;;;;;;;;;13.48;38.17;100007.13;5114701;28;20310;-77
2022/04/19 08:27:16;;;;;;;9.00;3.88;;;;;;;13.54;38.26;100008.09;5113384;28;19919;-77
2022/04/19 08:29:43;;;;;;;7.13;3.47;;;;;;;13.55;38.31;100005.16;5113462;28;20024;-77
2022/04/19 08:32:08;;;;;;;9.43;3.10;;;;;;;13.74;38.81;100005.03;5095588;28;20046;-74
2022/04/19 08:34:33;;;;;;;6.37;2.80;;;;;;;14.01;38.22;100000.75;5113491;28;20316;-74
2022/04/19 08:36:58;;;;;;;9.43;3.40;;;;;;;13.88;37.51;99999.13;5095257;28;20774;-78
2022/04/19 08:39:24;;;;;;;6.40;2.83;;;;;;;13.96;37.42;99997.97;5113259;28;20104;-78
2022/04/19 08:41:49;;;;;;;6.67;3.30;;;;;;;14.15;37.09;99994.03;5113791;28;20042;-77
2022/04/19 08:44:15;;;;;;;6.85;2.97;;;;;;;14.19;37.02;99992.50;5113650;28;20043;-77
2022/04/19 08:46:42;;;;;;;8.05;3.33;;;;;;;14.33;36.73;99989.53;5113223;28;20035;-77
2022/04/19 08:49:08;;;;;;;;;;;;;;;14.51;36.72;99997.53;5113914;28;20035;-77
2022/04/19 08:51:35;;;;;;;5.18;2.67;;;;;;;14.53;36.35;100003.50;5112962;28;19919;-75
2022/04/19 08:59:30;;;;;;;6.55;2.70;;;;;;;14.61;36.50;99992.28;5113097;28;20090;-76
2022/04/19 09:01:57;;;;;;;8.50;3.15;;;;;;;14.79;36.55;99997.53;5095106;28;20116;-76
2022/04/19 09:04:22;;;;;;;7.50;3.00;;;;;;;14.89;36.78;100000.41;5113451;28;20081;-76
2022/04/19 09:06:56;;;;;;;6.38;3.15;;;;;;;15.02;36.03;99996.59;5113186;28;20028;-76
2022/04/19 09:09:26;;;;;;;6.40;2.88;;;;;;;15.11;36.29;99999.72;5113350;28;20121;-76
2022/04/19 09:11:53;;;;;;;6.38;2.70;;;;;;;15.23;36.35;99998.56;5112644;28;20478;-76
2022/04/19 09:14:19;;;;;;;5.60;2.60;;;;;;;15.00;36.53;99993.28;5112479;28;20027;-76
2022/04/19 09:16:45;;;;;;;6.25;2.20;;;;;;;15.35;35.87;99986.81;5113310;28;20034;-76
2022/04/19 09:19:27;;;;;;;4.63;1.95;;;;;;;15.32;36.56;99992.75;5113067;28;20355;-77
2022/04/19 09:21:52;;;;;;;7.40;2.25;;;;;;;15.49;36.22;99993.56;5113064;28;20341;-76
2022/04/19 09:24:19;;;;;;;5.17;2.27;;;;;;;15.40;36.00;99993.16;5113421;28;20027;-78
2022/04/19 09:26:45;;;;;;;7.03;2.08;;;;;;;15.44;36.12;99990.75;5114058;28;20313;-78
2022/04/19 09:29:25;;;;;;;5.82;2.15;;;;;;;15.52;35.51;99991.19;5114339;28;20137;-79
2022/04/19 09:31:57;;;;;;;4.60;1.90;;;;;;;15.44;35.90;99980.72;5114438;28;20031;-79
2022/04/19 09:34:30;;;;;;;5.25;1.85;;;;;;;15.33;35.86;99989.78;5112607;28;20024;-76
2022/04/19 09:37:10;;;;;;;4.30;1.90;;;;;;;15.41;35.59;99986.66;5113398;28;20028;-78
2022/04/19 09:39:37;;;;;;;5.95;2.05;;;;;;;15.48;35.99;99976.44;5112844;28;20042;-76
2022/04/19 09:42:08;;;;;;;5.18;2.20;;;;;;;15.62;35.45;99980.50;5094619;28;20036;-78
2022/04/19 09:44:41;;;;;;;3.92;1.80;;;;;;;15.54;35.36;99986.34;5112960;28;20385;-77
2022/04/19 09:47:09;;;;;;;4.13;1.52;;;;;;;15.69;35.45;99980.34;5113181;28;20385;-76
2022/04/19 09:49:49;;;;;;;5.50;1.90;;;;;;;15.68;35.13;99980.56;5113264;28;20024;-78
2022/04/19 09:52:20;;;;;;;4.65;1.85;;;;;;;15.73;35.18;99967.91;5095096;28;20483;-77
2022/04/19 09:55:03;;;;;;;5.38;2.00;;;;;;;15.70;35.38;99973.84;5113266;28;20055;-76
2022/04/19 09:57:31;;;;;;;4.25;1.70;;;;;;;15.81;35.78;99969.34;5113000;28;20032;-76
2022/04/19 09:59:59;;;;;;;4.43;1.73;;;;;;;15.79;35.06;99976.94;5112717;28;20036;-76
2022/04/19 10:08:13;;;;;;;4.13;1.50;;;;;;;15.95;34.82;99966.03;5116426;28;20107;-76
2022/04/19 10:10:40;;;;;;;6.10;2.13;;;;;;;15.91;34.82;99958.66;5116155;28;20024;-76
2022/04/19 10:13:06;;;;;;;5.15;2.13;;;;;;;15.67;35.39;99958.03;5116365;28;20031;-76
2022/04/19 10:15:32;;;;;;;6.13;2.20;;;;;;;15.55;35.61;99971.72;5116356;28;20024;-76
2022/04/19 10:17:58;;;;;;;4.47;1.85;;;;;;;15.50;35.98;99965.34;5115831;28;20027;-76
2022/04/19 10:20:32;;;;;;;4.00;2.00;;;;;;;15.66;35.32;99963.72;5116054;28;20036;-76
2022/04/19 10:23:08;;;;;;;4.88;1.80;;;;;;;15.76;35.54;99961.16;5115934;28;20250;-76
2022/04/19 10:25:43;;;;;;;4.05;1.75;;;;;;;16.06;34.42;99961.56;5097918;28;20084;-76
2022/04/19 10:28:10;;;;;;;5.38;2.15;;;;;;;16.13;34.22;99954.03;5111731;28;20117;-76
2022/04/19 10:30:37;;;;;;;5.45;2.03;;;;;;;15.93;34.39;99957.31;5115545;28;20063;-76
2022/04/19 10:33:41;;;;;;;4.85;1.73;;;;;;;16.02;34.72;99949.53;5115732;28;20055;-76
2022/04/19 10:36:36;;;;;;;5.53;1.80;;;;;;;16.07;34.14;99944.19;5115896;28;20034;-78
2022/04/19 10:39:08;;;;;;;3.50;1.48;;;;;;;16.05;34.70;99948.22;5115812;28;20035;-76
2022/04/19 10:42:05;;;;;;;6.15;2.10;;;;;;;15.97;34.77;99944.03;5115655;28;20102;-76
2022/04/19 10:44:52;;;;;;;4.57;1.67;;;;;;;16.45;33.87;99942.47;5116196;28;20027;-78
2022/04/19 10:47:19;;;;;;;4.05;1.80;;;;;;;16.37;34.29;99945.63;5115715;28;20038;-76
2022/04/19 10:49:59;;;;;;;5.25;2.17;;;;;;;16.17;34.53;99948.91;5115400;28;20157;-76
2022/04/19 10:52:37;;;;;;;6.28;2.10;;;;;;;16.40;33.34;99945.94;5116267;28;20031;-78
2022/04/19 10:55:19;;;;;;;4.90;1.95;;;;;;;16.34;33.76;99941.50;5116356;28;20106;-76
2022/04/19 11:00:34;;;;;;;4.43;1.73;;;;;;;16.52;34.25;99935.72;5115104;28;20035;-76
2022/04/19 11:03:09;;;;;;;4.57;2.05;;;;;;;16.70;33.70;99939.19;5115325;28;20055;-76
2022/04/19 11:05:41;;;;;;;5.90;2.25;;;;;;;16.82;33.75;99926.28;5115217;28;20024;-76
2022/04/19 11:08:24;;;;;;;6.20;2.22;;;;;;;16.74;34.15;99927.56;5115071;28;20024;-77
2022/04/19 11:10:51;;;;;;;6.75;2.13;;;;;;;16.80;33.45;99923.81;5115347;28;20365;-76
2022/04/19 11:13:17;;;;;;;6.10;1.77;;;;;;;16.85;33.62;99929.28;5115163;28;20023;-76
2022/04/19 11:15:42;;;;;;;5.72;2.50;;;;;;;16.72;33.97;99924.28;5114152;28;20092;-77
2022/04/19 11:18:31;;;;;;;5.25;2.45;;;;;;;16.85;33.90;99934.72;5114791;28;20034;-76
2022/04/19 11:21:02;;;;;;;5.22;2.22;;;;;;;16.38;34.34;99929.06;5114926;28;20077;-76
2022/04/19 11:23:29;;;;;;;5.20;1.92;;;;;;;16.74;33.78;99922.13;5115193;28;20031;-80
2022/04/19 11:25:56;;;;;;;5.40;2.30;;;;;;;16.74;34.50;99926.75;5115489;28;20031;-76
2022/04/19 11:28:26;;;;;;;5.72;2.30;;;;;;;17.14;34.27;99929.00;5095656;28;20047;-77
2022/04/19 11:30:55;;;;;;;8.38;2.90;;;;;;;17.15;34.24;99914.31;5076573;28;20032;-77
2022/04/19 11:33:25;;;;;;;6.43;2.92;;;;;;;17.09;34.17;99915.34;5094430;28;20497;-76
2022/04/19 11:36:10;;;;;;;5.78;2.75;;;;;;;17.19;34.23;99912.72;5094264;28;20032;-76
2022/04/19 11:38:46;;;;;;;5.53;2.40;;;;;;;17.05;33.40;99925.94;5094381;28;20032;-76
2022/04/19 11:46:45;;;;;;;5.93;2.33;;;;;;;17.25;33.31;99909.75;5094198;28;20390;-77
2022/04/19 11:49:23;;;;;;;6.65;2.08;;;;;;;17.16;33.80;99913.25;5094044;28;20040;-78
2022/04/19 11:51:52;;;;;;;5.60;2.20;;;;;;;17.81;33.24;99903.88;5094010;28;20034;-77
2022/04/19 11:54:22;;;;;;;5.10;2.22;;;;;;;17.85;33.06;99915.91;5094828;28;20028;-77
2022/04/19 11:56:52;;;;;;;5.65;1.73;;;;;;;17.90;33.01;99908.56;5094394;28;20020;-77
2022/04/19 11:59:18;;;;;;;6.25;2.30;;;;;;;18.08;32.75;99915.47;5094520;28;20031;-77
2022/04/19 12:01:49;;;;;;;5.05;1.95;;;;;;;18.16;32.49;99903.22;5094633;28;20036;-78
2022/04/19 12:04:15;;;;;;;4.82;2.10;;;;;;;18.44;32.41;99915.59;5076328;28;20031;-78
2022/04/19 12:06:48;;;;;;;11.13;3.10;;;;;;;17.67;33.16;99911.72;5094893;28;20028;-77
2022/04/19 12:09:17;;;;;;;5.72;1.95;;;;;;;17.83;33.30;99904.44;5094824;28;20386;-79
2022/04/19 12:11:43;;;;;;;5.60;2.20;;;;;;;17.88;33.19;99909.91;5094554;28;20020;-79
2022/04/19 12:14:08;;;;;;;;;;;;;;;17.75;33.25;99897.56;5095543;28;20027;-77
2022/04/19 12:16:37;;;;;;;4.75;1.95;;;;;;;17.96;32.64;99912.94;5094228;28;19919;-77
2022/04/19 12:19:09;;;;;;;4.50;1.90;;;;;;;18.37;31.81;99908.47;5076417;28;20471;-78
2022/04/19 12:21:38;;;;;;;4.97;1.90;;;;;;;18.21;32.27;99895.88;5094188;28;20031;-77